Portada
METAR-TAF:

METAR-TAF

Aeropuertos :

Aeropuerto de Badajoz

Badajoz, España

latitud: 38-53N, longitud: 006-49W, altitud: 185 m

Observación

El informe se hizo hace 33 minutos, a las 12:00 UTC
Viento 8 kt del noroeste, variando entre oeste-suroeste y norte
Temperatura 30°C
Humedad 40%
Presión 1017 hPa
Visibilidad 10 km o más
sin nubes por debajo de 1500 m y sin presencia de cumulonimbus.

METAR: LEBZ 041200Z 31008KT 250V010 CAVOK 30/15 Q1017

Hora: 14:33 (12:33 UTC)

Pronóstico

El informe se hizo hace 4 horas y 33 minutos, a las 08:00 UTC
Pronóstico válido del 04 a las 09 UTC al 05 a las 09 UTC
Viento 8 kt del oeste-noroeste
Visibilidad 10 km o más
sin nubes por debajo de 1500 m y sin presencia de cumulonimbus.

TAF: LEBZ 040800Z 0409/0509 29008KT CAVOK TX35/0415Z TN16/0506Z

Observaciones y pronósticos meteorológicos de más de 4000 aeropuertos (mensajes METAR y TAF).

Los puntos amarillos y rojos representan las estaciones disponibles.

Ponga el ratón en el punto deseado para ver el nombre de la estación.

Haga clic para ver las observaciones y los pronósticos meteorológicos.

Para cambiar el mapa : haga clic en los botones verdes con una cruz de color negro para hacer un zoom, en el botón verde con un guión para alejar o en las flechas verdes para mapas adyacentes.


METAR-TAF: